Latest Weather Observations for Richmond

IDN60801

Issued at 10:05 pm EST Tuesday 23 September 2014 (issued every 30 minutes, with the page automatically refreshed every 10 minutes)

About weather observations | Map of weather stations | Latest weather observations for NSW | Other Formats
Station Details ID: 067105 Name: RICHMOND RAAF Lat: -33.60 Lon: 150.78 Height: 19.0 m
Data from the previous 72 hours. | See also: Recent months at Richmond
Date/Time
EST
Temp
°C
App
Temp
°C
Dew
Point
Rel
Hum
%
Delta-T
°C
Wind Press
QNH
hPa
Press
MSL
hPa
Rain
since 9 am
mm
Dir
 
Spd
km/h
Gust
km/h
Spd
kts
Gust
kts
23/10:00pm 13.1 13.4 11.0 87 1.1 W 0 0 0 0 1026.2 1026.2 0.0
23/09:30pm 13.1 12.0 10.5 84 1.3 N 7 7 4 4 1026.4 1026.4 0.0
23/09:00pm 15.0 14.2 11.6 80 1.8 ENE 7 7 4 4 1026.3 1026.3 0.0
23/08:30pm 15.3 13.4 11.7 79 1.9 E 13 15 7 8 1026.1 1026.1 0.0
23/08:00pm 15.6 14.3 11.4 76 2.2 E 9 13 5 7 1026.4 1026.4 0.0
23/07:30pm 16.0 14.7 11.4 74 2.5 E 9 13 5 7 1026.3 1026.3 0.0
23/07:00pm 16.5 14.9 11.4 72 2.7 ENE 11 15 6 8 1025.9 1025.9 0.0
23/06:30pm 17.1 15.0 11.2 68 3.2 ENE 13 19 7 10 1025.3 1025.3 0.0
23/06:00pm 17.7 14.7 10.8 64 3.7 ENE 17 20 9 11 1025.0 1025.0 0.0
23/05:30pm 19.2 15.8 10.7 58 4.6 ENE 19 24 10 13 1024.6 1024.6 0.0
23/05:00pm 20.7 17.4 10.8 53 5.4 E 19 24 10 13 1024.5 1024.5 0.0
23/04:30pm 21.9 18.4 10.1 47 6.4 E 19 24 10 13 1024.5 1024.5 0.0
23/04:00pm 22.7 19.2 10.2 45 6.8 ENE 19 26 10 14 1024.4 1024.4 0.0
23/03:30pm 23.4 20.7 5.8 32 8.9 NNE 9 19 5 10 1024.6 1024.6 0.0
23/03:00pm 23.0 20.4 6.3 34 8.5 N 9 19 5 10 1025.0 1025.0 0.0
23/02:30pm 23.2 20.6 6.0 33 8.7 E 9 17 5 9 1025.1 1025.1 0.0
23/02:00pm 22.7 19.6 5.6 33 8.6 NE 11 19 6 10 1025.4 1025.4 0.0
23/01:30pm 22.4 18.6 4.0 30 9.0 ENE 13 20 7 11 1025.8 1025.8 0.0
23/01:00pm 22.4 19.3 5.4 33 8.4 NE 11 22 6 12 1026.3 1026.3 0.0
23/12:30pm 21.7 18.7 6.0 36 7.9 NE 11 20 6 11 1026.9 1026.9 0.0
23/12:00pm 21.0 18.4 7.6 42 6.9 NE 11 17 6 9 1027.5 1027.5 0.0
23/11:30am 19.5 17.4 8.2 48 5.8 NNE 9 17 5 9 1028.0 1028.0 0.0
23/11:00am 19.0 16.6 6.8 45 6.1 NNE 9 15 5 8 1028.6 1028.6 0.0
23/10:30am 18.6 16.7 9.1 54 5.0 NE 9 13 5 7 1029.3 1029.3 0.0
23/10:00am 17.4 16.5 10.8 65 3.5 NNE 6 9 3 5 1029.5 1029.5 0.0
23/09:30am 15.7 14.9 9.8 68 3.1 NE 4 7 2 4 1030.0 1030.0 0.0
23/09:00am 13.4 12.2 9.5 77 2.0 S 6 9 3 5 1030.4 1030.4 0.0
23/08:30am 12.2 12.0 9.0 81 1.6 CALM 0 0 0 0 1030.4 1030.4 0.0
23/08:00am 10.6 10.4 8.9 89 0.8 CALM 0 0 0 0 1030.7 1030.7 0.0
23/07:44am 9.7 9.5 8.9 95 0.4 CALM 0 0 0 0 1030.6 1030.6 0.0
23/07:37am 9.6 9.4 9.1 97 0.2 CALM 0 4 0 2 1030.6 1030.6 0.0
23/07:30am 8.8 7.7 8.5 98 0.1 N 4 6 2 3 1030.6 1030.6 0.0
23/07:16am 8.0 7.1 7.7 98 0.1 W 2 7 1 4 1030.5 1030.5 0.0
23/07:02am 7.8 7.2 7.5 98 0.1 CALM 0 0 0 0 1030.7 1030.7 0.0
23/07:00am 7.6 7.0 7.3 98 0.1 CALM 0 0 0 0 1030.7 1030.7 0.0
23/06:55am 7.3 6.6 7.0 98 0.1 CALM 0 0 0 0 1030.7 1030.7 0.0
23/06:30am 6.4 5.5 6.1 98 0.1 CALM 0 0 0 0 1030.5 1030.5 0.0
23/06:24am 6.0 5.0 5.7 98 0.1 CALM 0 0 0 0 1030.4 1030.4 0.0
23/06:10am 5.5 4.4 5.2 98 0.1 CALM 0 0 0 0 1030.3 1030.3 0.0
23/06:09am 5.5 4.4 5.2 98 0.1 CALM 0 0 0 0 1030.3 1030.3 0.0
23/06:03am 5.6 4.5 5.3 98 0.1 CALM 0 0 0 0 1030.2 1030.2 0.0
23/06:00am 5.6 4.5 5.3 98 0.1 SW 0 0 0 0 1030.2 1030.2 0.0
23/05:30am 5.4 4.3 5.1 98 0.1 CALM 0 0 0 0 1030.1 1030.1 0.0
23/05:24am 5.3 4.2 5.0 98 0.1 CALM 0 0 0 0 1030.0 1030.0 0.0
23/05:00am 5.1 3.9 4.7 97 0.2 CALM 0 0 0 0 1029.9 1029.9 0.0
23/04:57am 4.8 3.5 4.2 96 0.3 CALM 0 6 0 3 1029.9 1029.9 0.0
23/04:39am 5.0 2.6 4.3 95 0.3 SW 6 7 3 4 1029.8 1029.8 0.0
23/04:37am 5.0 2.6 4.3 95 0.3 SW 6 7 3 4 1029.8 1029.8 0.0
23/04:33am 5.3 3.3 4.6 95 0.3 WSW 4 7 2 4 1029.7 1029.7 0.0
23/04:30am 5.3 3.7 4.6 95 0.3 W 2 7 1 4 1029.7 1029.7 0.0
23/04:21am 6.1 5.1 5.5 96 0.3 CALM 0 0 0 0 1029.6 1029.6 0.0
23/04:08am 6.0 5.0 5.4 96 0.3 CALM 0 0 0 0 1029.4 1029.4 0.0
23/04:00am 5.9 4.8 5.2 95 0.3 CALM 0 0 0 0 1029.3 1029.3 0.0
23/03:30am 6.7 5.7 5.8 94 0.4 CALM 0 0 0 0 1029.2 1029.2 0.0
23/03:00am 7.5 6.8 7.1 97 0.2 CALM 0 0 0 0 1029.2 1029.2 0.0
23/02:42am 7.3 6.5 6.7 96 0.3 CALM 0 0 0 0 1029.2 1029.2 0.0
23/02:30am 7.3 6.5 6.6 95 0.3 CALM 0 0 0 0 1029.3 1029.3 0.0
23/02:29am 7.4 6.6 6.7 95 0.3 CALM 0 0 0 0 1029.3 1029.3 0.0
23/02:00am 7.8 7.0 6.7 93 0.5 CALM 0 0 0 0 1029.5 1029.5 0.0
23/01:46am 8.2 7.6 7.3 94 0.4 CALM 0 0 0 0 1029.7 1029.7 0.0
23/01:30am 9.0 8.7 8.5 97 0.2 CALM 0 0 0 0 1029.8 1029.8 0.0
23/01:00am 8.7 8.2 7.9 95 0.4 CALM 0 0 0 0 1029.9 1029.9 0.0
23/12:30am 8.9 8.4 8.0 94 0.4 CALM 0 0 0 0 1030.0 1030.0 0.0
23/12:00am 9.1 8.6 7.9 92 0.6 NW 0 0 0 0 1030.0 1030.0 0.0
 
Date/Time
EST
Temp
°C
App
Temp
°C
Dew
Point
Rel
Hum
%
Delta-T
°C
Wind Press
QNH
hPa
Press
MSL
hPa
Rain
since 9 am
mm
Dir
 
Spd
km/h
Gust
km/h
Spd
kts
Gust
kts
22/11:30pm 9.3 8.7 7.4 88 0.9 CALM 0 0 0 0 1030.1 1030.1 0.0
22/11:00pm 10.6 10.3 8.7 88 0.9 CALM 0 0 0 0 1030.3 1030.3 0.0
22/10:30pm 10.2 9.6 7.3 82 1.4 CALM 0 0 0 0 1030.3 1030.3 0.0
22/10:00pm 11.6 11.3 8.6 82 1.5 CALM 0 0 0 0 1030.4 1030.4 0.0
22/09:30pm 12.2 11.7 7.9 75 2.1 CALM 0 2 0 1 1030.3 1030.3 0.0
22/09:00pm 13.7 12.2 8.5 71 2.6 NW 6 6 3 3 1030.3 1030.3 0.0
22/08:30pm 13.2 11.6 8.1 71 2.5 N 6 7 3 4 1030.2 1030.2 0.0
22/08:00pm 14.2 12.7 8.4 68 2.9 N 6 9 3 5 1030.0 1030.0 0.0
22/07:30pm 15.2 13.7 9.1 67 3.1 N 7 13 4 7 1029.7 1029.7 0.0
22/07:00pm 15.2 13.6 8.9 66 3.2 NNE 7 9 4 5 1029.5 1029.5 0.0
22/06:30pm 15.8 13.1 8.8 63 3.6 ENE 13 19 7 10 1029.0 1029.0 0.0
22/06:00pm 16.6 12.9 8.1 57 4.3 ENE 17 22 9 12 1028.5 1028.5 0.0
22/05:30pm 17.7 13.8 8.8 56 4.6 E 19 24 10 13 1028.2 1028.2 0.0
22/05:00pm 19.0 15.0 8.9 52 5.2 E 20 30 11 16 1027.8 1027.8 0.0
22/04:30pm 21.3 18.6 5.6 36 7.8 SE 9 17 5 9 1027.5 1027.5 0.0
22/04:00pm 21.4 18.1 6.5 38 7.5 ESE 13 20 7 11 1027.3 1027.3 0.0
22/03:30pm 21.5 18.8 5.8 36 7.9 E 9 17 5 9 1027.4 1027.4 0.0
22/03:00pm 21.5 19.2 5.8 36 7.8 NNE 7 17 4 9 1027.5 1027.5 0.0
22/02:30pm 21.8 20.1 7.6 40 7.4 NNE 6 9 3 5 1027.8 1027.8 0.0
22/02:00pm 21.4 19.4 6.9 39 7.4 NNE 7 17 4 9 1028.1 1028.1 0.0
22/01:30pm 20.7 18.5 6.3 39 7.2 NNW 7 11 4 6 1028.4 1028.4 0.0
22/01:00pm 20.1 18.2 6.8 42 6.7 SE 6 13 3 7 1029.1 1029.1 0.0
22/12:30pm 20.6 18.6 7.2 42 6.8 W 7 15 4 8 1029.6 1029.6 0.0
22/12:00pm 19.8 17.1 7.5 45 6.2 NE 11 17 6 9 1030.2 1030.2 0.0
22/11:30am 19.9 17.7 7.9 46 6.2 NE 9 17 5 9 1030.8 1030.8 0.0
22/11:00am 19.1 16.9 7.8 48 5.7 NNW 9 13 5 7 1031.3 1031.3 0.0
22/10:30am 18.9 17.5 9.4 54 5.0 NNE 7 20 4 11 1031.8 1031.8 0.0
22/10:00am 17.8 15.9 8.9 56 4.6 E 9 13 5 7 1032.1 1032.1 0.0
22/09:30am 17.0 15.6 9.7 62 3.8 NE 7 9 4 5 1032.3 1032.3 0.0
22/09:00am 16.2 15.3 9.2 63 3.6 S 4 9 2 5 1032.4 1032.4 0.0
22/08:30am 16.5 15.9 10.4 67 3.2 NE 4 7 2 4 1032.3 1032.3 0.0
22/08:00am 15.1 15.1 9.7 70 2.8 CALM 0 7 0 4 1032.1 1032.1 0.0
22/07:30am 14.0 13.9 9.4 74 2.4 CALM 0 0 0 0 1031.9 1031.9 0.0
22/07:00am 13.3 13.3 9.7 79 1.8 CALM 0 0 0 0 1031.6 1031.6 0.0
22/06:30am 12.0 12.0 9.9 87 1.1 CALM 0 0 0 0 1031.4 1031.4 0.0
22/06:00am 11.4 11.0 9.8 90 0.8 NNW 2 9 1 5 1031.1 1031.1 0.0
22/05:30am 10.8 10.8 9.7 93 0.6 CALM 0 0 0 0 1030.7 1030.7 0.0
22/05:00am 10.8 10.8 9.7 93 0.5 CALM 0 0 0 0 1030.3 1030.3 0.0
22/04:30am 9.9 9.2 8.7 92 0.6 SSW 2 6 1 3 1029.9 1029.9 0.0
22/04:00am 10.9 10.3 9.0 88 0.9 SW 2 7 1 4 1029.7 1029.7 0.0
22/03:30am 11.3 11.1 9.2 87 1.1 CALM 0 0 0 0 1029.7 1029.7 0.0
22/03:00am 11.7 11.6 9.4 86 1.1 CALM 0 0 0 0 1029.7 1029.7 0.0
22/02:30am 12.3 11.9 9.7 84 1.3 W 2 7 1 4 1029.9 1029.9 0.0
22/02:00am 12.0 11.9 9.4 84 1.3 CALM 0 0 0 0 1030.0 1030.0 0.0
22/01:30am 11.8 11.6 9.0 83 1.4 CALM 0 0 0 0 1030.0 1030.0 0.0
22/01:00am 12.9 11.4 9.0 77 1.9 S 7 7 4 4 1030.2 1030.2 0.0
22/12:30am 13.6 12.1 9.1 74 2.3 S 7 9 4 5 1030.5 1030.5 0.0
22/12:00am 13.7 13.8 10.1 79 1.8 CALM 0 0 0 0 1030.6 1030.6 0.0
 
Date/Time
EST
Temp
°C
App
Temp
°C
Dew
Point
Rel
Hum
%
Delta-T
°C
Wind Press
QNH
hPa
Press
MSL
hPa
Rain
since 9 am
mm
Dir
 
Spd
km/h
Gust
km/h
Spd
kts
Gust
kts
21/11:30pm 13.4 13.2 9.1 75 2.2 CALM 0 0 0 0 1030.7 1030.7 0.0
21/11:00pm 14.3 13.0 9.1 71 2.6 SSW 6 7 3 4 1030.7 1030.7 0.0
21/10:30pm 14.6 13.1 9.2 70 2.8 SSW 7 9 4 5 1030.8 1030.8 0.0
21/10:00pm 14.9 13.5 9.5 70 2.8 SSW 7 9 4 5 1031.1 1031.1 0.0
21/09:30pm 15.1 13.2 9.2 68 3.0 SSW 9 11 5 6 1031.1 1031.1 0.0
21/09:00pm 15.3 13.9 9.7 69 2.9 S 7 7 4 4 1030.9 1030.9 0.0
21/08:30pm 15.5 14.1 9.6 68 3.1 S 7 9 4 5 1030.7 1030.7 0.0
21/08:00pm 15.6 14.2 9.5 67 3.1 S 7 9 4 5 1030.5 1030.5 0.0
21/07:30pm 15.9 14.3 8.9 63 3.6 E 7 9 4 5 1030.1 1030.1 0.0
21/07:00pm 15.7 14.2 9.1 65 3.4 E 7 9 4 5 1029.6 1029.6 0.0
21/06:30pm 15.7 12.2 8.7 63 3.6 E 17 22 9 12 1028.6 1028.6 0.0
21/06:00pm 16.5 12.4 8.7 60 4.0 E 20 28 11 15 1027.6 1027.6 0.0
21/05:30pm 17.8 12.4 9.4 58 4.4 ESE 28 35 15 19 1026.8 1026.8 0.0
21/05:00pm 20.0 16.9 7.4 44 6.4 SE 13 19 7 10 1026.2 1026.2 0.0
21/04:30pm 20.5 18.1 6.8 41 6.9 ESE 9 15 5 8 1026.1 1026.1 0.0
21/04:00pm 20.3 17.5 7.0 42 6.7 ENE 11 17 6 9 1026.1 1026.1 0.0
21/03:30pm 20.6 18.1 8.3 45 6.4 E 11 17 6 9 1026.1 1026.1 0.0
21/03:00pm 20.5 17.7 8.5 46 6.2 NE 13 19 7 10 1026.4 1026.4 0.0
21/02:30pm 20.7 18.9 9.3 48 6.1 NNE 9 22 5 12 1026.8 1026.8 0.0
21/02:00pm 19.8 17.2 7.9 46 6.1 ENE 11 20 6 11 1027.2 1027.2 0.0
21/01:30pm 19.6 17.9 8.3 48 5.9 NNE 7 13 4 7 1027.9 1027.9 0.0
21/01:00pm 18.7 16.6 8.1 50 5.4 S 9 17 5 9 1028.5 1028.5 0.0
21/12:30pm 18.1 16.4 8.4 53 5.0 WSW 7 13 4 7 1029.0 1029.0 0.0
21/12:00pm 18.7 16.6 8.4 51 5.3 WSW 9 15 5 8 1029.4 1029.4 0.0
21/11:30am 18.4 16.6 8.1 51 5.3 ESE 7 13 4 7 1029.9 1029.9 0.0
21/11:00am 17.5 15.5 8.6 56 4.5 ESE 9 15 5 8 1030.4 1030.4 0.0
21/10:30am 16.5 14.9 8.7 60 4.0 ESE 7 11 4 6 1030.8 1030.8 0.0
21/10:00am 16.0 13.2 8.7 62 3.7 S 13 19 7 10 1031.1 1031.1 0.0
21/09:30am 16.0 12.8 8.5 61 3.8 S 15 24 8 13 1031.0 1031.0 0.0
21/09:00am 14.9 13.2 8.4 65 3.3 S 7 13 4 7 1030.8 1030.8 0.0
21/08:30am 13.9 12.5 8.7 71 2.6 SSE 6 9 3 5 1030.4 1030.4 0.0
21/08:00am 13.0 11.2 9.4 79 1.8 SSE 9 11 5 6 1030.0 1030.0 0.0
21/07:30am 11.9 11.8 9.6 86 1.2 CALM 0 0 0 0 1029.7 1029.7 0.0
21/07:00am 10.1 9.9 9.0 93 0.5 CALM 0 6 0 3 1029.3 1029.3 0.0
21/06:30am 9.8 9.6 9.0 95 0.4 CALM 0 0 0 0 1028.8 1028.8 0.0
21/06:00am 9.3 8.9 8.4 94 0.4 CALM 0 0 0 0 1028.4 1028.4 0.0
21/05:30am 9.5 8.0 8.3 92 0.6 NNE 6 6 3 3 1028.2 1028.2 0.0
21/05:00am 9.6 8.0 8.7 94 0.4 NNE 7 11 4 6 1028.0 1028.0 0.0
21/04:30am 9.4 9.0 8.2 92 0.6 CALM 0 0 0 0 1027.9 1027.9 0.0
21/04:00am 10.5 9.1 8.9 90 0.8 ESE 6 7 3 4 1027.5 1027.5 0.0
21/03:30am 10.1 8.5 8.9 92 0.6 ESE 7 9 4 5 1027.5 1027.5 0.0
21/03:00am 9.8 9.1 8.6 92 0.6 N 2 7 1 4 1027.6 1027.6 0.0
21/02:30am 10.0 9.0 8.8 92 0.6 N 4 6 2 3 1027.8 1027.8 0.0
21/02:00am 9.7 9.3 8.3 91 0.7 CALM 0 0 0 0 1027.9 1027.9 0.0
21/01:30am 9.7 9.2 8.0 89 0.8 CALM 0 0 0 0 1028.2 1028.2 0.0
21/01:00am 10.4 8.9 8.3 87 1.0 NNE 6 7 3 4 1028.3 1028.3 0.0
21/12:30am 10.5 8.8 7.6 82 1.4 SW 6 7 3 4 1028.4 1028.4 0.0
21/12:00am 10.4 8.8 8.2 86 1.1 SW 6 7 3 4 1028.3 1028.3 0.0
 
Date/Time
EST
Temp
°C
App
Temp
°C
Dew
Point
Rel
Hum
%
Delta-T
°C
Wind Press
QNH
hPa
Press
MSL
hPa
Rain
since 9 am
mm
Dir
 
Spd
km/h
Gust
km/h
Spd
kts
Gust
kts
20/11:30pm 10.0 8.0 6.2 77 1.8 SW 6 7 3 4 1028.2 1028.2 0.0
20/11:00pm 12.0 10.1 7.5 74 2.2 WSW 7 7 4 4 1028.2 1028.2 0.0
20/10:30pm 12.8 10.9 7.5 70 2.6 SW 7 9 4 5 1028.2 1028.2 0.0

Other Formats:

Comma delimited format used in spreadsheet applications
http://www.bom.gov.au/fwo/IDN60801/IDN60801.95753.axf

JavaScript Object Notation format (JSON) in row-major order
http://www.bom.gov.au/fwo/IDN60801/IDN60801.95753.json